sensor_id;sensor_type;location;lat;lon;timestamp;P1;durP1;ratioP1;P2;durP2;ratioP2
29712;SDS011;16623;53.632;10.016;2022-10-31T15:05:24;30.38;;;18.40;;
29712;SDS011;16623;53.632;10.016;2022-10-31T15:07:55;34.30;;;19.38;;
29712;SDS011;16623;53.632;10.016;2022-10-31T15:10:26;37.88;;;18.73;;
29712;SDS011;16623;53.632;10.016;2022-10-31T15:13:07;31.15;;;18.05;;
29712;SDS011;16623;53.632;10.016;2022-10-31T15:15:35;36.15;;;19.38;;
29712;SDS011;16623;53.632;10.016;2022-10-31T15:18:01;40.90;;;20.00;;
29712;SDS011;16623;53.632;10.016;2022-10-31T15:20:30;33.15;;;18.40;;
29712;SDS011;16623;53.632;10.016;2022-10-31T15:23:01;32.58;;;18.17;;
29712;SDS011;16623;53.632;10.016;2022-10-31T15:25:28;47.33;;;19.27;;
29712;SDS011;16623;53.632;10.016;2022-10-31T15:27:58;35.15;;;21.27;;
29712;SDS011;16623;53.632;10.016;2022-10-31T15:30:24;34.50;;;19.63;;
29712;SDS011;16623;53.632;10.016;2022-10-31T15:32:52;32.65;;;19.60;;
29712;SDS011;16623;53.632;10.016;2022-10-31T15:35:28;34.83;;;19.95;;
29712;SDS011;16623;53.632;10.016;2022-10-31T15:37:55;32.35;;;18.52;;
29712;SDS011;16623;53.632;10.016;2022-10-31T15:40:22;32.92;;;19.60;;
29712;SDS011;16623;53.632;10.016;2022-10-31T15:43:00;33.83;;;20.20;;
29712;SDS011;16623;53.632;10.016;2022-10-31T15:45:29;37.35;;;19.27;;
29712;SDS011;16623;53.632;10.016;2022-10-31T15:47:56;31.58;;;17.70;;
29712;SDS011;16623;53.632;10.016;2022-10-31T15:50:31;32.83;;;18.58;;
29712;SDS011;16623;53.632;10.016;2022-10-31T15:53:21;32.55;;;18.02;;
29712;SDS011;16623;53.632;10.016;2022-10-31T15:55:53;29.23;;;17.98;;
29712;SDS011;16623;53.632;10.016;2022-10-31T15:58:21;38.70;;;18.70;;
29712;SDS011;16623;53.632;10.016;2022-10-31T16:01:02;36.67;;;18.35;;
29712;SDS011;16623;53.632;10.016;2022-10-31T16:03:30;34.67;;;19.50;;
29712;SDS011;16623;53.632;10.016;2022-10-31T16:06:01;31.80;;;17.38;;
29712;SDS011;16623;53.632;10.016;2022-10-31T16:13:37;34.53;;;17.98;;
29712;SDS011;16623;53.632;10.016;2022-10-31T16:16:13;33.08;;;17.48;;
29712;SDS011;16623;53.632;10.016;2022-10-31T16:18:41;31.83;;;17.40;;
29712;SDS011;16623;53.632;10.016;2022-10-31T16:21:08;36.60;;;18.83;;
29712;SDS011;16623;53.632;10.016;2022-10-31T16:23:35;31.33;;;19.35;;
29712;SDS011;16623;53.632;10.016;2022-10-31T16:26:07;35.40;;;19.02;;
29712;SDS011;16623;53.632;10.016;2022-10-31T16:28:33;39.00;;;20.45;;
29712;SDS011;16623;53.632;10.016;2022-10-31T16:31:00;42.60;;;20.17;;
29712;SDS011;16623;53.632;10.016;2022-10-31T16:33:35;32.95;;;19.15;;
29712;SDS011;16623;53.632;10.016;2022-10-31T16:38:58;36.05;;;20.45;;
29712;SDS011;16623;53.632;10.016;2022-10-31T16:41:34;36.35;;;19.70;;
29712;SDS011;16623;53.632;10.016;2022-10-31T16:44:05;41.33;;;19.35;;
29712;SDS011;16623;53.632;10.016;2022-10-31T16:46:39;41.60;;;20.45;;
29712;SDS011;16623;53.632;10.016;2022-10-31T16:49:09;52.08;;;22.45;;
29712;SDS011;16623;53.632;10.016;2022-10-31T16:51:38;41.65;;;21.38;;
29712;SDS011;16623;53.632;10.016;2022-10-31T16:54:04;46.17;;;21.63;;
29712;SDS011;16623;53.632;10.016;2022-10-31T16:56:40;45.50;;;22.63;;
29712;SDS011;16623;53.632;10.016;2022-10-31T16:59:09;43.28;;;20.63;;
29712;SDS011;16623;53.632;10.016;2022-10-31T17:01:37;40.13;;;23.08;;
29712;SDS011;16623;53.632;10.016;2022-10-31T17:04:08;49.38;;;23.85;;
29712;SDS011;16623;53.632;10.016;2022-10-31T17:06:38;54.35;;;24.67;;
29712;SDS011;16623;53.632;10.016;2022-10-31T17:09:04;51.47;;;25.45;;
29712;SDS011;16623;53.632;10.016;2022-10-31T17:11:29;47.22;;;23.63;;
29712;SDS011;16623;53.632;10.016;2022-10-31T17:13:55;53.85;;;24.73;;
29712;SDS011;16623;53.632;10.016;2022-10-31T17:16:21;43.67;;;23.50;;
29712;SDS011;16623;53.632;10.016;2022-10-31T17:18:49;48.35;;;23.42;;
29712;SDS011;16623;53.632;10.016;2022-10-31T17:21:17;51.67;;;24.67;;
29712;SDS011;16623;53.632;10.016;2022-10-31T17:23:47;49.90;;;25.17;;
29712;SDS011;16623;53.632;10.016;2022-10-31T17:26:13;50.38;;;22.55;;
29712;SDS011;16623;53.632;10.016;2022-10-31T17:28:39;52.70;;;23.10;;
29712;SDS011;16623;53.632;10.016;2022-10-31T17:31:05;46.53;;;22.30;;
29712;SDS011;16623;53.632;10.016;2022-10-31T17:33:32;48.75;;;21.85;;
29712;SDS011;16623;53.632;10.016;2022-10-31T17:35:58;47.85;;;21.13;;
29712;SDS011;16623;53.632;10.016;2022-10-31T17:38:26;38.92;;;20.42;;
29712;SDS011;16623;53.632;10.016;2022-10-31T17:40:52;44.65;;;20.67;;
29712;SDS011;16623;53.632;10.016;2022-10-31T17:43:18;42.38;;;20.92;;
29712;SDS011;16623;53.632;10.016;2022-10-31T17:45:51;43.15;;;21.58;;
29712;SDS011;16623;53.632;10.016;2022-10-31T17:48:16;43.03;;;20.52;;
29712;SDS011;16623;53.632;10.016;2022-10-31T17:50:45;42.35;;;19.50;;
29712;SDS011;16623;53.632;10.016;2022-10-31T17:53:10;41.17;;;19.88;;
29712;SDS011;16623;53.632;10.016;2022-10-31T17:55:36;46.92;;;19.95;;
29712;SDS011;16623;53.632;10.016;2022-10-31T17:58:03;39.88;;;17.98;;
29712;SDS011;16623;53.632;10.016;2022-10-31T18:00:29;42.30;;;18.83;;
29712;SDS011;16623;53.632;10.016;2022-10-31T18:02:55;41.45;;;19.08;;
29712;SDS011;16623;53.632;10.016;2022-10-31T18:05:21;40.08;;;19.55;;
29712;SDS011;16623;53.632;10.016;2022-10-31T18:07:48;39.42;;;19.55;;
29712;SDS011;16623;53.632;10.016;2022-10-31T18:10:15;41.40;;;19.60;;
29712;SDS011;16623;53.632;10.016;2022-10-31T18:15:21;40.42;;;19.35;;
29712;SDS011;16623;53.632;10.016;2022-10-31T18:18:00;36.22;;;18.80;;
29712;SDS011;16623;53.632;10.016;2022-10-31T18:20:26;36.47;;;17.38;;
29712;SDS011;16623;53.632;10.016;2022-10-31T18:22:54;44.50;;;21.65;;
29712;SDS011;16623;53.632;10.016;2022-10-31T18:25:20;39.97;;;19.42;;
29712;SDS011;16623;53.632;10.016;2022-10-31T18:27:46;37.60;;;18.55;;
29712;SDS011;16623;53.632;10.016;2022-10-31T18:30:14;35.17;;;17.48;;
29712;SDS011;16623;53.632;10.016;2022-10-31T18:32:40;38.45;;;18.02;;
29712;SDS011;16623;53.632;10.016;2022-10-31T18:35:06;36.00;;;18.25;;
29712;SDS011;16623;53.632;10.016;2022-10-31T18:37:32;38.53;;;18.55;;
29712;SDS011;16623;53.632;10.016;2022-10-31T18:39:57;33.42;;;17.33;;
29712;SDS011;16623;53.632;10.016;2022-10-31T18:42:26;36.85;;;18.83;;
29712;SDS011;16623;53.632;10.016;2022-10-31T18:44:55;38.63;;;18.83;;
29712;SDS011;16623;53.632;10.016;2022-10-31T18:47:23;39.85;;;19.00;;
29712;SDS011;16623;53.632;10.016;2022-10-31T18:50:05;39.03;;;18.65;;
29712;SDS011;16623;53.632;10.016;2022-10-31T18:52:31;43.22;;;18.48;;
29712;SDS011;16623;53.632;10.016;2022-10-31T18:54:57;34.78;;;19.02;;
29712;SDS011;16623;53.632;10.016;2022-10-31T18:57:22;42.03;;;19.35;;
29712;SDS011;16623;53.632;10.016;2022-10-31T18:59:48;33.47;;;18.48;;
29712;SDS011;16623;53.632;10.016;2022-10-31T19:02:16;34.15;;;18.15;;
29712;SDS011;16623;53.632;10.016;2022-10-31T19:04:42;38.33;;;18.88;;
29712;SDS011;16623;53.632;10.016;2022-10-31T19:07:08;36.20;;;18.48;;
29712;SDS011;16623;53.632;10.016;2022-10-31T19:09:34;39.55;;;19.55;;
29712;SDS011;16623;53.632;10.016;2022-10-31T19:12:00;33.92;;;18.65;;
29712;SDS011;16623;53.632;10.016;2022-10-31T19:14:26;35.42;;;18.15;;
29712;SDS011;16623;53.632;10.016;2022-10-31T19:16:52;35.50;;;17.88;;
29712;SDS011;16623;53.632;10.016;2022-10-31T19:19:21;35.45;;;19.30;;
29712;SDS011;16623;53.632;10.016;2022-10-31T19:21:47;41.58;;;20.38;;
29712;SDS011;16623;53.632;10.016;2022-10-31T19:24:16;32.58;;;17.42;;
29712;SDS011;16623;53.632;10.016;2022-10-31T19:26:42;36.70;;;18.88;;
29712;SDS011;16623;53.632;10.016;2022-10-31T19:29:08;37.17;;;20.63;;
29712;SDS011;16623;53.632;10.016;2022-10-31T19:31:34;37.88;;;19.90;;
29712;SDS011;16623;53.632;10.016;2022-10-31T19:34:00;36.90;;;20.30;;
29712;SDS011;16623;53.632;10.016;2022-10-31T19:36:25;37.65;;;20.80;;
29712;SDS011;16623;53.632;10.016;2022-10-31T19:38:52;38.65;;;19.48;;
29712;SDS011;16623;53.632;10.016;2022-10-31T19:43:45;34.72;;;18.83;;
29712;SDS011;16623;53.632;10.016;2022-10-31T19:46:12;40.65;;;19.55;;
29712;SDS011;16623;53.632;10.016;2022-10-31T19:48:38;40.97;;;20.83;;
29712;SDS011;16623;53.632;10.016;2022-10-31T19:51:06;39.67;;;19.63;;
29712;SDS011;16623;53.632;10.016;2022-10-31T19:53:34;36.10;;;19.98;;
29712;SDS011;16623;53.632;10.016;2022-10-31T19:56:01;35.08;;;19.70;;
29712;SDS011;16623;53.632;10.016;2022-10-31T19:58:27;38.95;;;20.40;;
29712;SDS011;16623;53.632;10.016;2022-10-31T20:00:55;36.50;;;18.65;;
29712;SDS011;16623;53.632;10.016;2022-10-31T20:03:24;35.22;;;20.95;;
29712;SDS011;16623;53.632;10.016;2022-10-31T20:05:49;40.83;;;20.60;;
29712;SDS011;16623;53.632;10.016;2022-10-31T20:08:17;38.88;;;20.15;;
29712;SDS011;16623;53.632;10.016;2022-10-31T20:10:53;46.15;;;21.27;;
29712;SDS011;16623;53.632;10.016;2022-10-31T20:13:24;42.78;;;21.92;;
29712;SDS011;16623;53.632;10.016;2022-10-31T20:15:51;44.03;;;22.25;;
29712;SDS011;16623;53.632;10.016;2022-10-31T20:18:21;51.95;;;23.58;;
29712;SDS011;16623;53.632;10.016;2022-10-31T20:20:47;48.35;;;24.02;;
29712;SDS011;16623;53.632;10.016;2022-10-31T20:23:13;53.20;;;22.83;;
29712;SDS011;16623;53.632;10.016;2022-10-31T20:25:45;51.70;;;21.48;;
29712;SDS011;16623;53.632;10.016;2022-10-31T20:28:11;51.40;;;23.10;;
29712;SDS011;16623;53.632;10.016;2022-10-31T20:30:37;49.17;;;23.67;;
29712;SDS011;16623;53.632;10.016;2022-10-31T20:33:03;47.08;;;23.08;;
29712;SDS011;16623;53.632;10.016;2022-10-31T20:35:28;47.83;;;22.25;;
29712;SDS011;16623;53.632;10.016;2022-10-31T20:37:54;42.42;;;21.05;;
29712;SDS011;16623;53.632;10.016;2022-10-31T20:40:20;46.28;;;22.75;;
29712;SDS011;16623;53.632;10.016;2022-10-31T20:42:46;47.80;;;22.92;;
29712;SDS011;16623;53.632;10.016;2022-10-31T20:45:12;51.90;;;24.05;;
29712;SDS011;16623;53.632;10.016;2022-10-31T20:47:38;43.58;;;20.88;;
29712;SDS011;16623;53.632;10.016;2022-10-31T20:50:03;47.03;;;22.13;;
29712;SDS011;16623;53.632;10.016;2022-10-31T20:52:29;49.42;;;22.75;;
29712;SDS011;16623;53.632;10.016;2022-10-31T20:54:55;41.80;;;21.60;;
29712;SDS011;16623;53.632;10.016;2022-10-31T20:57:20;43.50;;;22.10;;
29712;SDS011;16623;53.632;10.016;2022-10-31T20:59:46;42.78;;;21.60;;
29712;SDS011;16623;53.632;10.016;2022-10-31T21:02:12;45.13;;;22.40;;
29712;SDS011;16623;53.632;10.016;2022-10-31T21:04:37;40.97;;;20.92;;
29712;SDS011;16623;53.632;10.016;2022-10-31T21:07:03;54.00;;;22.10;;
29712;SDS011;16623;53.632;10.016;2022-10-31T21:09:28;50.10;;;23.20;;
29712;SDS011;16623;53.632;10.016;2022-10-31T21:11:54;46.47;;;21.90;;
29712;SDS011;16623;53.632;10.016;2022-10-31T21:14:20;45.83;;;23.40;;
29712;SDS011;16623;53.632;10.016;2022-10-31T21:16:45;47.95;;;22.75;;
29712;SDS011;16623;53.632;10.016;2022-10-31T21:19:11;52.25;;;22.20;;
29712;SDS011;16623;53.632;10.016;2022-10-31T21:21:36;53.95;;;23.40;;
29712;SDS011;16623;53.632;10.016;2022-10-31T21:24:04;64.20;;;24.52;;
29712;SDS011;16623;53.632;10.016;2022-10-31T21:26:33;54.17;;;25.35;;
29712;SDS011;16623;53.632;10.016;2022-10-31T21:29:03;57.63;;;24.25;;
29712;SDS011;16623;53.632;10.016;2022-10-31T21:31:29;51.33;;;24.08;;
29712;SDS011;16623;53.632;10.016;2022-10-31T21:33:55;55.63;;;23.58;;
29712;SDS011;16623;53.632;10.016;2022-10-31T21:36:21;47.13;;;22.67;;
29712;SDS011;16623;53.632;10.016;2022-10-31T21:38:50;52.33;;;24.42;;
29712;SDS011;16623;53.632;10.016;2022-10-31T21:41:16;65.88;;;25.75;;
29712;SDS011;16623;53.632;10.016;2022-10-31T21:43:44;56.92;;;25.85;;
29712;SDS011;16623;53.632;10.016;2022-10-31T21:46:23;54.20;;;25.67;;
29712;SDS011;16623;53.632;10.016;2022-10-31T21:48:54;56.83;;;25.55;;
29712;SDS011;16623;53.632;10.016;2022-10-31T21:51:24;51.92;;;24.10;;
29712;SDS011;16623;53.632;10.016;2022-10-31T21:53:52;60.10;;;26.50;;
29712;SDS011;16623;53.632;10.016;2022-10-31T21:56:36;53.40;;;24.27;;
29712;SDS011;16623;53.632;10.016;2022-10-31T21:59:02;59.88;;;25.58;;
29712;SDS011;16623;53.632;10.016;2022-10-31T22:01:29;59.85;;;25.90;;
29712;SDS011;16623;53.632;10.016;2022-10-31T22:03:55;61.67;;;26.65;;
29712;SDS011;16623;53.632;10.016;2022-10-31T22:06:21;58.42;;;27.45;;
29712;SDS011;16623;53.632;10.016;2022-10-31T22:08:47;57.17;;;25.25;;
29712;SDS011;16623;53.632;10.016;2022-10-31T22:11:14;61.08;;;26.70;;
29712;SDS011;16623;53.632;10.016;2022-10-31T22:13:42;63.38;;;25.40;;
29712;SDS011;16623;53.632;10.016;2022-10-31T22:16:13;54.88;;;24.20;;
29712;SDS011;16623;53.632;10.016;2022-10-31T22:18:43;50.65;;;25.80;;
29712;SDS011;16623;53.632;10.016;2022-10-31T22:21:09;59.85;;;26.52;;
29712;SDS011;16623;53.632;10.016;2022-10-31T22:23:39;59.53;;;26.13;;
29712;SDS011;16623;53.632;10.016;2022-10-31T22:26:12;64.40;;;26.58;;
29712;SDS011;16623;53.632;10.016;2022-10-31T22:28:39;61.70;;;26.58;;
29712;SDS011;16623;53.632;10.016;2022-10-31T22:31:06;69.75;;;26.65;;
29712;SDS011;16623;53.632;10.016;2022-10-31T22:33:35;57.17;;;25.67;;
29712;SDS011;16623;53.632;10.016;2022-10-31T22:36:02;64.28;;;27.13;;
29712;SDS011;16623;53.632;10.016;2022-10-31T22:38:30;61.90;;;26.15;;
29712;SDS011;16623;53.632;10.016;2022-10-31T22:40:58;61.13;;;27.52;;
29712;SDS011;16623;53.632;10.016;2022-10-31T22:43:24;55.80;;;25.55;;
29712;SDS011;16623;53.632;10.016;2022-10-31T22:45:57;57.47;;;25.80;;
29712;SDS011;16623;53.632;10.016;2022-10-31T22:48:30;66.38;;;26.25;;
29712;SDS011;16623;53.632;10.016;2022-10-31T22:51:04;52.10;;;24.27;;
29712;SDS011;16623;53.632;10.016;2022-10-31T22:53:30;59.58;;;26.23;;
29712;SDS011;16623;53.632;10.016;2022-10-31T22:55:57;53.63;;;25.42;;
29712;SDS011;16623;53.632;10.016;2022-10-31T22:58:22;51.83;;;24.95;;
29712;SDS011;16623;53.632;10.016;2022-10-31T23:00:48;58.92;;;27.38;;
29712;SDS011;16623;53.632;10.016;2022-10-31T23:03:13;55.72;;;25.75;;
29712;SDS011;16623;53.632;10.016;2022-10-31T23:05:39;57.78;;;25.80;;
29712;SDS011;16623;53.632;10.016;2022-10-31T23:08:04;55.75;;;26.15;;
29712;SDS011;16623;53.632;10.016;2022-10-31T23:10:31;55.60;;;25.27;;
29712;SDS011;16623;53.632;10.016;2022-10-31T23:13:00;61.90;;;24.83;;
29712;SDS011;16623;53.632;10.016;2022-10-31T23:15:44;56.88;;;26.95;;
29712;SDS011;16623;53.632;10.016;2022-10-31T23:18:10;51.08;;;24.73;;
29712;SDS011;16623;53.632;10.016;2022-10-31T23:20:35;57.20;;;23.98;;
29712;SDS011;16623;53.632;10.016;2022-10-31T23:23:01;55.80;;;26.00;;
29712;SDS011;16623;53.632;10.016;2022-10-31T23:25:27;54.25;;;25.00;;
29712;SDS011;16623;53.632;10.016;2022-10-31T23:28:12;50.27;;;24.60;;
29712;SDS011;16623;53.632;10.016;2022-10-31T23:30:37;57.75;;;26.10;;
29712;SDS011;16623;53.632;10.016;2022-10-31T23:33:03;54.08;;;25.40;;
29712;SDS011;16623;53.632;10.016;2022-10-31T23:35:28;46.05;;;25.67;;
29712;SDS011;16623;53.632;10.016;2022-10-31T23:37:54;47.05;;;22.75;;
29712;SDS011;16623;53.632;10.016;2022-10-31T23:40:20;51.72;;;22.65;;
29712;SDS011;16623;53.632;10.016;2022-10-31T23:42:46;44.35;;;22.17;;
29712;SDS011;16623;53.632;10.016;2022-10-31T23:45:11;48.17;;;24.27;;
29712;SDS011;16623;53.632;10.016;2022-10-31T23:47:37;46.00;;;23.35;;
29712;SDS011;16623;53.632;10.016;2022-10-31T23:50:02;45.88;;;22.13;;
29712;SDS011;16623;53.632;10.016;2022-10-31T23:52:28;48.90;;;22.40;;
29712;SDS011;16623;53.632;10.016;2022-10-31T23:54:54;42.85;;;22.20;;
29712;SDS011;16623;53.632;10.016;2022-10-31T23:57:20;45.38;;;23.20;;
29712;SDS011;16623;53.632;10.016;2022-10-31T23:59:45;41.58;;;21.65;;
